createdAt,value
2017-07-09T00:01:42.154Z,34.50
2017-07-09T00:04:13.027Z,34.50
2017-07-09T00:06:41.878Z,34.60
2017-07-09T00:09:11.014Z,34.50
2017-07-09T00:11:39.976Z,34.50
2017-07-09T00:14:09.397Z,34.40
2017-07-09T00:16:38.937Z,34.40
2017-07-09T00:19:07.593Z,34.40
2017-07-09T00:21:36.281Z,34.40
2017-07-09T00:24:05.864Z,34.40
2017-07-09T00:26:34.472Z,34.40
2017-07-09T00:29:03.177Z,34.30
2017-07-09T00:31:32.065Z,34.30
2017-07-09T00:34:00.874Z,34.40
2017-07-09T00:36:29.424Z,34.30
2017-07-09T00:38:59.221Z,34.40
2017-07-09T00:41:28.061Z,34.40
2017-07-09T00:43:56.613Z,34.40
2017-07-09T00:46:26.302Z,34.20
2017-07-09T00:48:55.162Z,34.20
2017-07-09T00:51:23.697Z,34.20
2017-07-09T00:53:53.339Z,34.10
2017-07-09T00:56:21.894Z,34.20
2017-07-09T00:58:51.582Z,34.10
2017-07-09T01:01:20.445Z,34.10
2017-07-09T01:03:48.981Z,34.10
2017-07-09T01:06:17.158Z,34.10
2017-07-09T01:08:45.473Z,34.10
2017-07-09T01:11:14.472Z,34.10
2017-07-09T01:13:43.117Z,34.10
2017-07-09T01:16:11.917Z,34.00
2017-07-09T01:18:40.669Z,34.00
2017-07-09T01:21:09.173Z,34.00
2017-07-09T01:23:38.967Z,34.00
2017-07-09T01:26:07.705Z,34.00
2017-07-09T01:28:36.441Z,34.00
2017-07-09T01:31:05.337Z,34.00
2017-07-09T01:33:33.513Z,34.00
2017-07-09T01:36:02.092Z,34.00
2017-07-09T01:38:30.990Z,34.00
2017-07-09T01:41:00.493Z,33.90
2017-07-09T01:43:29.115Z,33.90
2017-07-09T01:45:57.830Z,33.90
2017-07-09T01:48:26.577Z,33.90
2017-07-09T01:50:55.818Z,34.00
2017-07-09T01:53:24.777Z,34.00
2017-07-09T01:55:54.325Z,34.00
2017-07-09T01:58:23.110Z,34.00
2017-07-09T02:00:52.149Z,34.00
2017-07-09T02:03:21.701Z,34.00
2017-07-09T02:05:50.252Z,34.00
2017-07-09T02:08:20.045Z,34.00
2017-07-09T02:10:48.994Z,34.00
2017-07-09T02:13:17.601Z,34.00
2017-07-09T02:15:46.421Z,34.00
2017-07-09T02:18:15.130Z,34.00
2017-07-09T02:20:43.932Z,34.00
2017-07-09T02:23:12.280Z,34.10
2017-07-09T02:25:40.877Z,34.10
2017-07-09T02:28:10.265Z,34.10
2017-07-09T02:30:38.973Z,34.10
2017-07-09T02:33:08.448Z,34.10
2017-07-09T02:35:37.115Z,34.00
2017-07-09T02:38:05.422Z,34.20
2017-07-09T02:40:33.925Z,34.20
2017-07-09T02:43:03.517Z,34.30
2017-07-09T02:45:32.222Z,34.30
2017-07-09T02:48:01.813Z,34.50
2017-07-09T02:50:30.070Z,34.50
2017-07-09T02:52:58.839Z,34.60
2017-07-09T02:55:27.402Z,34.60
2017-07-09T02:57:56.288Z,34.50
2017-07-09T03:00:25.141Z,34.40
2017-07-09T03:02:53.713Z,34.60
2017-07-09T03:05:22.338Z,34.60
2017-07-09T03:07:51.870Z,34.70
2017-07-09T03:10:20.529Z,34.70
2017-07-09T03:12:48.751Z,34.70
2017-07-09T03:15:17.597Z,34.90
2017-07-09T03:17:46.181Z,35.00
2017-07-09T03:20:15.819Z,35.10
2017-07-09T03:22:44.577Z,35.10
2017-07-09T03:25:14.205Z,35.40
2017-07-09T03:27:43.056Z,35.30
2017-07-09T03:30:12.053Z,35.40
2017-07-09T03:32:40.810Z,35.50
2017-07-09T03:35:09.449Z,35.60
2017-07-09T03:37:39.177Z,35.90
2017-07-09T03:40:07.879Z,35.90
2017-07-09T03:42:36.584Z,36.00
2017-07-09T03:45:04.940Z,36.10
2017-07-09T03:47:33.825Z,36.00
2017-07-09T03:50:02.676Z,36.30
2017-07-09T03:52:31.391Z,36.60
2017-07-09T03:55:00.118Z,36.70
2017-07-09T03:57:28.965Z,36.60
2017-07-09T03:59:58.574Z,36.90
2017-07-09T04:02:26.741Z,36.80
2017-07-09T04:04:56.158Z,37.10
2017-07-09T04:07:25.985Z,37.20
2017-07-09T04:09:54.789Z,37.20
2017-07-09T04:12:23.681Z,37.50
2017-07-09T04:14:52.282Z,37.50
2017-07-09T04:17:21.126Z,37.70
2017-07-09T04:19:50.765Z,37.90
2017-07-09T04:22:19.760Z,37.80
2017-07-09T04:24:48.314Z,37.90
2017-07-09T04:27:16.488Z,38.20
2017-07-09T04:29:46.045Z,38.40
2017-07-09T04:32:14.694Z,38.40
2017-07-09T04:34:43.449Z,38.80
2017-07-09T04:37:12.397Z,38.80
2017-07-09T04:39:41.035Z,39.00
2017-07-09T04:42:10.681Z,39.40
2017-07-09T04:44:39.679Z,39.40
2017-07-09T04:47:07.991Z,39.70
2017-07-09T04:49:36.156Z,40.20
2017-07-09T04:52:05.122Z,40.70
2017-07-09T04:54:33.304Z,41.10
2017-07-09T04:57:01.906Z,41.70
2017-07-09T04:59:30.761Z,42.60
2017-07-09T05:02:00.160Z,43.80
2017-07-09T05:04:29.462Z,44.60
2017-07-09T05:06:59.149Z,45.30
2017-07-09T05:09:27.992Z,45.30
2017-07-09T05:11:56.621Z,44.30
2017-07-09T05:14:25.038Z,42.80
2017-07-09T05:16:53.859Z,42.60
2017-07-09T05:19:22.230Z,43.10
2017-07-09T05:21:50.973Z,42.90
2017-07-09T05:24:19.193Z,43.10
2017-07-09T05:26:47.900Z,43.90
2017-07-09T05:29:16.670Z,44.10
2017-07-09T05:31:45.334Z,44.70
2017-07-09T05:34:14.132Z,45.50
2017-07-09T05:36:43.789Z,45.60
2017-07-09T05:39:12.622Z,47.10
2017-07-09T05:41:41.926Z,46.60
2017-07-09T05:44:10.232Z,46.60
2017-07-09T05:46:39.022Z,45.80
2017-07-09T05:49:07.911Z,45.20
2017-07-09T05:51:36.597Z,45.30
2017-07-09T05:54:05.357Z,45.50
2017-07-09T05:56:42.387Z,44.80
2017-07-09T05:59:11.029Z,44.80
2017-07-09T06:01:40.666Z,45.00
2017-07-09T06:04:09.813Z,45.00
2017-07-09T06:06:38.270Z,44.40
2017-07-09T06:09:06.901Z,44.70
2017-07-09T06:11:36.441Z,46.10
2017-07-09T06:14:05.002Z,46.10
2017-07-09T06:16:33.781Z,46.70
2017-07-09T06:19:02.176Z,47.40
2017-07-09T06:21:30.565Z,47.80
2017-07-09T06:23:59.336Z,48.30
2017-07-09T06:26:28.074Z,48.60
2017-07-09T06:28:56.838Z,47.60
2017-07-09T06:31:25.393Z,47.60
2017-07-09T06:33:55.185Z,47.80
2017-07-09T06:36:23.974Z,47.80
2017-07-09T06:38:52.553Z,47.60
2017-07-09T06:41:21.317Z,47.20
2017-07-09T06:43:49.967Z,47.00
2017-07-09T06:46:18.675Z,46.90
2017-07-09T06:48:47.716Z,45.90
2017-07-09T06:51:16.561Z,45.70
2017-07-09T06:53:45.118Z,46.00
2017-07-09T06:56:13.895Z,45.60
2017-07-09T06:58:43.646Z,45.50
2017-07-09T07:01:11.781Z,45.50
2017-07-09T07:03:41.297Z,44.60
2017-07-09T07:06:09.477Z,44.60
2017-07-09T07:08:38.340Z,45.00
2017-07-09T07:11:07.235Z,44.80
2017-07-09T07:13:36.077Z,45.40
2017-07-09T07:16:04.737Z,46.30
2017-07-09T07:18:34.460Z,47.60
2017-07-09T07:21:03.265Z,47.70
2017-07-09T07:23:31.626Z,47.90
2017-07-09T07:26:00.404Z,48.50
2017-07-09T07:28:29.713Z,49.20
2017-07-09T07:30:58.394Z,49.20
2017-07-09T07:33:27.829Z,49.60
2017-07-09T07:35:56.527Z,49.60
2017-07-09T07:38:25.189Z,50.00
2017-07-09T07:40:54.088Z,49.40
2017-07-09T07:43:23.034Z,48.50
2017-07-09T07:45:51.878Z,47.80
2017-07-09T07:48:20.269Z,47.00
2017-07-09T07:50:49.026Z,47.00
2017-07-09T07:53:17.805Z,46.40
2017-07-09T07:55:47.298Z,45.60
2017-07-09T07:58:15.469Z,45.50
2017-07-09T08:00:43.970Z,45.30
2017-07-09T08:03:13.801Z,44.70
2017-07-09T08:05:42.594Z,44.70
2017-07-09T08:08:11.445Z,44.50
2017-07-09T08:10:40.157Z,44.50
2017-07-09T08:13:08.682Z,44.60
2017-07-09T08:15:37.439Z,44.50
2017-07-09T08:18:06.422Z,44.60
2017-07-09T08:20:35.765Z,44.80
2017-07-09T08:23:04.313Z,44.70
2017-07-09T08:25:33.309Z,44.70
2017-07-09T08:28:02.108Z,44.60
2017-07-09T08:30:30.961Z,44.80
2017-07-09T08:33:00.097Z,44.80
2017-07-09T08:35:28.906Z,44.70
2017-07-09T08:37:57.502Z,44.90
2017-07-09T08:40:26.636Z,45.00
2017-07-09T08:42:54.809Z,45.00
2017-07-09T08:45:23.057Z,45.00
2017-07-09T08:47:51.545Z,45.00
2017-07-09T08:50:20.362Z,45.00
2017-07-09T08:52:49.886Z,44.80
2017-07-09T08:55:19.421Z,44.80
2017-07-09T08:57:48.145Z,44.70
2017-07-09T09:00:16.875Z,44.70
2017-07-09T09:02:45.865Z,44.80
2017-07-09T09:05:14.036Z,44.70
2017-07-09T09:07:43.874Z,44.50
2017-07-09T09:10:12.190Z,44.40
2017-07-09T09:12:40.759Z,44.20
2017-07-09T09:15:09.406Z,44.20
2017-07-09T09:17:38.402Z,44.40
2017-07-09T09:20:07.204Z,44.50
2017-07-09T09:22:36.062Z,44.40
2017-07-09T09:25:05.632Z,44.20
2017-07-09T09:27:34.011Z,44.20
2017-07-09T09:30:02.785Z,43.90
2017-07-09T09:32:31.473Z,43.90
2017-07-09T09:35:00.132Z,44.00
2017-07-09T09:37:28.288Z,44.10
2017-07-09T09:39:56.972Z,44.10
2017-07-09T09:42:25.577Z,44.10
2017-07-09T09:44:55.126Z,44.10
2017-07-09T09:47:24.022Z,44.10
2017-07-09T09:49:52.774Z,44.10
2017-07-09T09:52:21.431Z,44.20
2017-07-09T09:54:50.422Z,44.10
2017-07-09T09:57:19.265Z,44.10
2017-07-09T09:59:47.826Z,43.80
2017-07-09T10:02:16.514Z,43.50
2017-07-09T10:04:45.297Z,43.60
2017-07-09T10:07:14.001Z,43.50
2017-07-09T10:09:42.997Z,43.60
2017-07-09T10:12:11.849Z,43.50
2017-07-09T10:14:40.607Z,43.30
2017-07-09T10:17:09.685Z,43.00
2017-07-09T10:19:38.245Z,42.90
2017-07-09T10:22:07.073Z,42.90
2017-07-09T10:24:36.025Z,42.80
2017-07-09T10:27:05.405Z,42.70
2017-07-09T10:29:34.163Z,42.70
2017-07-09T10:32:03.014Z,42.70
2017-07-09T10:34:31.921Z,42.80
2017-07-09T10:37:00.774Z,42.70
2017-07-09T10:39:29.707Z,42.50
2017-07-09T10:41:58.709Z,42.30
2017-07-09T10:44:27.601Z,42.30
2017-07-09T10:46:56.466Z,42.40
2017-07-09T10:49:25.053Z,42.30
2017-07-09T10:51:53.841Z,42.20
2017-07-09T10:54:22.144Z,42.20
2017-07-09T10:56:51.041Z,42.20
2017-07-09T10:59:19.761Z,42.30
2017-07-09T11:01:48.577Z,42.30
2017-07-09T11:04:18.039Z,42.40
2017-07-09T11:06:46.722Z,42.50
2017-07-09T11:09:14.978Z,42.40
2017-07-09T11:11:43.878Z,42.30
2017-07-09T11:14:12.874Z,42.30
2017-07-09T11:16:41.865Z,42.20
2017-07-09T11:19:10.860Z,42.10
2017-07-09T11:21:39.758Z,42.20
2017-07-09T11:24:08.542Z,42.30
2017-07-09T11:26:37.248Z,42.30
2017-07-09T11:29:05.993Z,42.40
2017-07-09T11:31:35.093Z,42.20
2017-07-09T11:34:03.998Z,42.10
2017-07-09T11:36:32.849Z,42.20
2017-07-09T11:39:01.157Z,42.20
2017-07-09T11:41:29.837Z,42.20
2017-07-09T11:43:59.197Z,42.30
2017-07-09T11:46:27.929Z,42.30
2017-07-09T11:48:56.722Z,42.20
2017-07-09T11:51:25.526Z,42.10
2017-07-09T11:53:53.831Z,42.10
2017-07-09T11:56:22.621Z,42.00
2017-07-09T11:58:51.270Z,42.00
2017-07-09T12:01:20.274Z,41.90
2017-07-09T12:03:49.065Z,41.70
2017-07-09T12:06:17.868Z,41.70
2017-07-09T12:08:46.910Z,41.50
2017-07-09T12:11:15.082Z,41.50
2017-07-09T12:13:43.822Z,41.40
2017-07-09T12:16:12.125Z,41.40
2017-07-09T12:18:40.857Z,41.50
2017-07-09T12:21:10.549Z,41.10
2017-07-09T12:23:38.794Z,41.10
2017-07-09T12:26:06.989Z,41.00
2017-07-09T12:28:35.526Z,40.80
2017-07-09T12:31:04.346Z,40.80
2017-07-09T12:33:32.782Z,40.80
2017-07-09T12:36:02.299Z,40.70
2017-07-09T12:38:31.432Z,40.70
2017-07-09T12:41:00.073Z,40.60
2017-07-09T12:43:29.477Z,40.80
2017-07-09T12:45:59.114Z,40.60
2017-07-09T12:48:27.814Z,40.70
2017-07-09T12:50:56.666Z,40.70
2017-07-09T12:53:25.368Z,40.60
2017-07-09T12:55:54.220Z,40.50
2017-07-09T12:58:23.114Z,40.20
2017-07-09T13:00:51.825Z,40.10
2017-07-09T13:03:21.346Z,40.00
2017-07-09T13:05:50.150Z,40.00
2017-07-09T13:08:19.338Z,40.00
2017-07-09T13:10:47.565Z,39.90
2017-07-09T13:13:16.293Z,39.90
2017-07-09T13:15:45.180Z,39.90
2017-07-09T13:18:13.940Z,39.90
2017-07-09T13:20:42.787Z,39.90
2017-07-09T13:23:11.880Z,39.90
2017-07-09T13:25:40.831Z,39.80
2017-07-09T13:28:09.330Z,39.90
2017-07-09T13:30:39.017Z,39.60
2017-07-09T13:33:07.910Z,39.60
2017-07-09T13:35:36.905Z,39.70
2017-07-09T13:38:05.848Z,39.70
2017-07-09T13:40:34.841Z,39.70
2017-07-09T13:43:03.752Z,39.70
2017-07-09T13:45:32.597Z,39.70
2017-07-09T13:48:02.126Z,39.60
2017-07-09T13:50:30.973Z,39.50
2017-07-09T13:52:59.786Z,39.40
2017-07-09T13:55:28.314Z,39.50
2017-07-09T13:57:57.157Z,39.40
2017-07-09T14:00:26.765Z,39.40
2017-07-09T14:02:56.358Z,39.30
2017-07-09T14:05:25.198Z,39.30
2017-07-09T14:07:53.957Z,39.40
2017-07-09T14:10:23.541Z,39.30
2017-07-09T14:12:52.386Z,39.30
2017-07-09T14:15:21.077Z,39.40
2017-07-09T14:17:49.282Z,39.40
2017-07-09T14:20:18.189Z,39.40
2017-07-09T14:35:32.609Z,39.30
2017-07-09T14:38:01.449Z,39.10
2017-07-09T14:40:30.852Z,39.00
2017-07-09T14:43:00.685Z,38.90
2017-07-09T14:45:29.533Z,38.90
2017-07-09T14:47:57.693Z,38.90
2017-07-09T14:50:26.529Z,38.80
2017-07-09T14:52:55.225Z,38.80
2017-07-09T14:55:23.924Z,38.80
2017-07-09T14:57:52.730Z,38.70
2017-07-09T15:00:21.417Z,38.60
2017-07-09T15:02:50.165Z,38.60
2017-07-09T15:05:19.774Z,38.60
2017-07-09T15:07:49.501Z,38.50
2017-07-09T15:10:18.354Z,38.50
2017-07-09T15:12:47.345Z,38.50
2017-07-09T15:15:16.115Z,38.50
2017-07-09T15:17:44.923Z,38.40
2017-07-09T15:20:13.270Z,38.40
2017-07-09T15:22:41.485Z,38.40
2017-07-09T15:25:10.029Z,38.40
2017-07-09T15:27:38.781Z,38.30
2017-07-09T15:30:07.581Z,38.30
2017-07-09T15:32:36.386Z,38.30
2017-07-09T15:35:05.529Z,38.30
2017-07-09T15:37:34.421Z,38.20
2017-07-09T15:40:03.520Z,38.20
2017-07-09T15:42:32.513Z,38.20
2017-07-09T15:45:00.677Z,38.20
2017-07-09T15:47:29.402Z,38.20
2017-07-09T15:49:58.938Z,38.20
2017-07-09T15:52:27.593Z,38.20
2017-07-09T15:54:56.998Z,38.20
2017-07-09T15:57:26.829Z,38.20
2017-07-09T15:59:55.634Z,38.20
2017-07-09T16:02:24.520Z,38.20
2017-07-09T16:04:53.214Z,38.20
2017-07-09T16:07:21.813Z,38.10
2017-07-09T16:09:49.970Z,38.10
2017-07-09T16:12:18.657Z,38.10
2017-07-09T16:14:47.261Z,38.00
2017-07-09T16:17:16.007Z,38.10
2017-07-09T16:19:44.913Z,38.00
2017-07-09T16:22:13.764Z,38.00
2017-07-09T16:24:42.014Z,37.90
2017-07-09T16:27:10.853Z,37.90
2017-07-09T16:29:40.158Z,37.90
2017-07-09T16:32:08.741Z,37.90
2017-07-09T16:34:38.173Z,37.90
2017-07-09T16:37:06.934Z,37.90
2017-07-09T16:39:35.637Z,37.90
2017-07-09T16:42:04.634Z,38.00
2017-07-09T16:44:32.881Z,37.80
2017-07-09T16:47:02.582Z,37.90
2017-07-09T16:49:31.577Z,37.90
2017-07-09T16:52:00.081Z,37.90
2017-07-09T16:54:29.617Z,37.90
2017-07-09T16:56:58.613Z,37.90
2017-07-09T16:59:26.862Z,37.90
2017-07-09T17:01:56.166Z,37.90
2017-07-09T17:04:25.001Z,37.90
2017-07-09T17:06:53.737Z,37.90
2017-07-09T17:09:23.045Z,37.80
2017-07-09T17:11:52.874Z,37.80
2017-07-09T17:14:21.781Z,37.80
2017-07-09T17:16:50.669Z,37.80
2017-07-09T17:19:19.362Z,37.80
2017-07-09T17:21:47.958Z,37.80
2017-07-09T17:24:16.085Z,37.80
2017-07-09T17:26:45.697Z,37.80
2017-07-09T17:29:13.825Z,37.80
2017-07-09T17:31:42.561Z,37.80
2017-07-09T17:34:12.000Z,37.80
2017-07-09T17:36:40.653Z,37.80
2017-07-09T17:39:08.877Z,37.80
2017-07-09T17:41:37.622Z,37.80
2017-07-09T17:44:05.969Z,37.80
2017-07-09T17:46:34.702Z,37.70
2017-07-09T17:49:03.653Z,37.70
2017-07-09T17:51:31.817Z,37.80
2017-07-09T17:54:00.441Z,37.70
2017-07-09T17:56:29.884Z,37.60
2017-07-09T17:58:58.570Z,37.60
2017-07-09T18:01:27.437Z,37.60
2017-07-09T18:03:56.422Z,37.50
2017-07-09T18:06:25.181Z,37.60
2017-07-09T18:08:54.074Z,37.50
2017-07-09T18:11:23.076Z,37.60
2017-07-09T18:13:52.505Z,37.50
2017-07-09T18:16:21.301Z,37.50
2017-07-09T18:18:50.501Z,37.60
2017-07-09T18:21:19.393Z,37.60
2017-07-09T18:23:48.345Z,37.60
2017-07-09T18:26:16.681Z,37.60
2017-07-09T18:28:45.342Z,37.60
2017-07-09T18:31:14.041Z,37.60
2017-07-09T18:33:43.037Z,37.50
2017-07-09T18:36:11.208Z,37.50
2017-07-09T18:38:39.788Z,37.50
2017-07-09T18:41:08.163Z,37.50
2017-07-09T18:43:36.718Z,37.50
2017-07-09T18:46:05.580Z,37.50
2017-07-09T18:48:33.885Z,37.50
2017-07-09T18:51:02.733Z,37.50
2017-07-09T18:53:31.349Z,37.50
2017-07-09T19:09:01.704Z,37.50
2017-07-09T19:11:30.949Z,37.50
2017-07-09T19:13:59.698Z,37.50
2017-07-09T19:16:29.305Z,37.50
2017-07-09T19:18:58.933Z,37.40
2017-07-09T19:21:28.528Z,37.40
2017-07-09T19:23:57.528Z,37.40
2017-07-09T19:26:26.215Z,37.40
2017-07-09T19:28:54.585Z,37.40
2017-07-09T19:31:24.304Z,37.40
2017-07-09T19:33:53.110Z,37.40
2017-07-09T19:36:22.100Z,37.40
2017-07-09T19:38:50.445Z,37.40
2017-07-09T19:41:19.053Z,37.40
2017-07-09T19:43:47.650Z,37.40
2017-07-09T19:46:16.705Z,37.40
2017-07-09T19:48:45.447Z,37.40
2017-07-09T19:51:14.006Z,37.40
2017-07-09T19:53:42.345Z,37.40
2017-07-09T19:56:11.096Z,37.40
2017-07-09T19:58:39.753Z,37.40
2017-07-09T20:01:09.485Z,37.40
2017-07-09T20:03:38.541Z,37.40
2017-07-09T20:06:07.433Z,37.30
2017-07-09T20:08:35.781Z,37.30
2017-07-09T20:11:04.421Z,37.30
2017-07-09T20:13:33.820Z,37.20
2017-07-09T20:16:03.653Z,37.20
2017-07-09T20:18:31.833Z,37.20
2017-07-09T20:21:00.652Z,37.20
2017-07-09T20:23:29.616Z,37.10
2017-07-09T20:25:58.286Z,37.10
2017-07-09T20:28:27.590Z,37.10
2017-07-09T20:30:57.097Z,37.10
2017-07-09T20:33:25.779Z,37.10
2017-07-09T20:35:55.318Z,37.10
2017-07-09T20:38:23.805Z,37.10
2017-07-09T20:40:52.565Z,37.10
2017-07-09T20:43:21.249Z,37.00
2017-07-09T20:45:50.153Z,37.10
2017-07-09T20:48:19.005Z,37.00
2017-07-09T20:50:47.849Z,37.00
2017-07-09T20:53:16.846Z,37.00
2017-07-09T20:55:45.406Z,37.00
2017-07-09T20:58:14.194Z,37.00
2017-07-09T21:00:43.083Z,36.90
2017-07-09T21:03:12.426Z,36.90
2017-07-09T21:05:41.074Z,36.90
2017-07-09T21:08:09.973Z,36.90
2017-07-09T21:10:38.873Z,36.90
2017-07-09T21:13:07.825Z,36.90
2017-07-09T21:15:36.390Z,36.80
2017-07-09T21:18:04.570Z,36.80
2017-07-09T21:20:33.478Z,36.80
2017-07-09T21:23:02.186Z,36.80
2017-07-09T21:25:31.769Z,36.80
2017-07-09T21:28:00.026Z,36.80
2017-07-09T21:30:28.909Z,36.80
2017-07-09T21:32:57.657Z,36.80
2017-07-09T21:35:26.997Z,36.80
2017-07-09T21:37:55.894Z,36.80
2017-07-09T21:40:24.537Z,36.80
2017-07-09T21:42:53.838Z,36.70
2017-07-09T21:45:22.155Z,36.70
2017-07-09T21:47:50.697Z,36.70
2017-07-09T21:50:20.426Z,36.80
2017-07-09T21:52:49.382Z,36.70
2017-07-09T21:55:17.886Z,36.70
2017-07-09T21:57:47.573Z,36.70
2017-07-09T22:00:16.571Z,36.70
2017-07-09T22:02:45.309Z,36.70
2017-07-09T22:05:14.029Z,36.60
2017-07-09T22:07:42.701Z,36.70
2017-07-09T22:10:11.453Z,36.70
2017-07-09T22:12:40.109Z,36.60
2017-07-09T22:15:08.514Z,36.60
2017-07-09T22:17:38.149Z,36.50
2017-07-09T22:20:06.990Z,36.50
2017-07-09T22:22:35.681Z,36.50
2017-07-09T22:25:04.392Z,36.50
2017-07-09T22:27:32.990Z,36.50
2017-07-09T22:30:01.946Z,36.50
2017-07-09T22:32:30.834Z,36.50
2017-07-09T22:34:59.678Z,36.40
2017-07-09T22:37:28.442Z,36.40
2017-07-09T22:39:57.070Z,36.40
2017-07-09T22:42:25.718Z,36.40
2017-07-09T22:44:54.519Z,36.30
2017-07-09T22:47:23.372Z,36.30
2017-07-09T22:49:51.949Z,36.30
2017-07-09T22:52:20.857Z,36.20
2017-07-09T22:54:50.453Z,36.20
2017-07-09T22:57:18.966Z,36.20
2017-07-09T22:59:47.695Z,36.20
2017-07-09T23:02:16.338Z,36.20
2017-07-09T23:04:45.142Z,36.20
2017-07-09T23:07:14.240Z,36.20
2017-07-09T23:09:43.128Z,36.30
2017-07-09T23:12:11.334Z,36.20
2017-07-09T23:14:40.266Z,36.20
2017-07-09T23:17:08.870Z,36.20
2017-07-09T23:19:38.478Z,36.20
2017-07-09T23:22:08.205Z,36.20
2017-07-09T23:24:36.924Z,36.10
2017-07-09T23:27:05.564Z,36.10
2017-07-09T23:29:33.817Z,36.10
2017-07-09T23:32:02.562Z,36.10
2017-07-09T23:34:31.453Z,36.10
2017-07-09T23:37:00.203Z,36.10
2017-07-09T23:39:29.694Z,36.00
2017-07-09T23:41:58.588Z,36.00
2017-07-09T23:44:27.225Z,36.00
2017-07-09T23:46:55.981Z,35.90
2017-07-09T23:49:24.269Z,35.90
2017-07-09T23:51:52.947Z,35.90
2017-07-09T23:54:22.599Z,35.80
2017-07-09T23:56:50.810Z,35.80
2017-07-09T23:59:19.609Z,35.70
